sensor_id;sensor_type;location;lat;lon;timestamp;P1;P2;P0
33948;PMS7003;20229;49.856;19.030;2023-05-15T00:00:39;71;69;66
33948;PMS7003;20229;49.856;19.030;2023-05-15T00:06:01;71;68;66
33948;PMS7003;20229;49.856;19.030;2023-05-15T00:11:15;69;65;62
33948;PMS7003;20229;49.856;19.030;2023-05-15T00:16:28;68;66;62
33948;PMS7003;20229;49.856;19.030;2023-05-15T00:21:42;68;64;62
33948;PMS7003;20229;49.856;19.030;2023-05-15T00:26:56;69;66;63
33948;PMS7003;20229;49.856;19.030;2023-05-15T00:32:11;69;66;63
33948;PMS7003;20229;49.856;19.030;2023-05-15T00:37:25;66;62;59
33948;PMS7003;20229;49.856;19.030;2023-05-15T00:42:38;66;61;58
33948;PMS7003;20229;49.856;19.030;2023-05-15T00:47:54;67;62;59
33948;PMS7003;20229;49.856;19.030;2023-05-15T00:53:10;69;66;62
33948;PMS7003;20229;49.856;19.030;2023-05-15T00:58:26;70;67;63
33948;PMS7003;20229;49.856;19.030;2023-05-15T01:03:41;62;55;51
33948;PMS7003;20229;49.856;19.030;2023-05-15T01:08:58;70;67;63
33948;PMS7003;20229;49.856;19.030;2023-05-15T01:14:16;71;67;63
33948;PMS7003;20229;49.856;19.030;2023-05-15T01:19:30;66;64;60
33948;PMS7003;20229;49.856;19.030;2023-05-15T01:30:40;63;59;55
33948;PMS7003;20229;49.856;19.030;2023-05-15T01:46:50;65;63;59
33948;PMS7003;20229;49.856;19.030;2023-05-15T01:52:09;67;65;61
33948;PMS7003;20229;49.856;19.030;2023-05-15T01:57:29;65;61;57
33948;PMS7003;20229;49.856;19.030;2023-05-15T02:02:45;68;65;61
33948;PMS7003;20229;49.856;19.030;2023-05-15T02:08:01;65;62;59
33948;PMS7003;20229;49.856;19.030;2023-05-15T02:13:16;66;63;59
33948;PMS7003;20229;49.856;19.030;2023-05-15T02:18:31;64;60;57
33948;PMS7003;20229;49.856;19.030;2023-05-15T02:23:45;65;61;58
33948;PMS7003;20229;49.856;19.030;2023-05-15T02:34:30;66;63;59
33948;PMS7003;20229;49.856;19.030;2023-05-15T02:39:50;66;63;60
33948;PMS7003;20229;49.856;19.030;2023-05-15T02:45:07;63;60;57
33948;PMS7003;20229;49.856;19.030;2023-05-15T02:50:22;68;65;62
33948;PMS7003;20229;49.856;19.030;2023-05-15T02:55:37;65;62;59
33948;PMS7003;20229;49.856;19.030;2023-05-15T03:00:51;61;59;56
33948;PMS7003;20229;49.856;19.030;2023-05-15T03:06:06;61;58;55
33948;PMS7003;20229;49.856;19.030;2023-05-15T03:11:19;66;64;61
33948;PMS7003;20229;49.856;19.030;2023-05-15T03:16:35;64;61;58
33948;PMS7003;20229;49.856;19.030;2023-05-15T03:21:50;68;66;62
33948;PMS7003;20229;49.856;19.030;2023-05-15T03:27:04;67;64;61
33948;PMS7003;20229;49.856;19.030;2023-05-15T03:32:18;68;65;62
33948;PMS7003;20229;49.856;19.030;2023-05-15T03:37:32;65;64;60
33948;PMS7003;20229;49.856;19.030;2023-05-15T03:42:47;65;63;60
33948;PMS7003;20229;49.856;19.030;2023-05-15T03:48:00;61;59;57
33948;PMS7003;20229;49.856;19.030;2023-05-15T03:53:14;66;64;61
33948;PMS7003;20229;49.856;19.030;2023-05-15T03:58:28;66;65;63
33948;PMS7003;20229;49.856;19.030;2023-05-15T04:03:44;66;63;61
33948;PMS7003;20229;49.856;19.030;2023-05-15T04:08:59;64;62;60
33948;PMS7003;20229;49.856;19.030;2023-05-15T04:14:13;64;61;59
33948;PMS7003;20229;49.856;19.030;2023-05-15T04:19:26;62;60;58
33948;PMS7003;20229;49.856;19.030;2023-05-15T04:24:40;61;60;57
33948;PMS7003;20229;49.856;19.030;2023-05-15T04:29:54;67;64;61
33948;PMS7003;20229;49.856;19.030;2023-05-15T04:35:09;65;64;60
33948;PMS7003;20229;49.856;19.030;2023-05-15T04:40:27;66;62;59
33948;PMS7003;20229;49.856;19.030;2023-05-15T04:45:41;67;65;62
33948;PMS7003;20229;49.856;19.030;2023-05-15T04:50:54;58;56;53
33948;PMS7003;20229;49.856;19.030;2023-05-15T04:56:08;62;60;57
33948;PMS7003;20229;49.856;19.030;2023-05-15T05:01:22;62;59;56
33948;PMS7003;20229;49.856;19.030;2023-05-15T05:06:37;59;55;52
33948;PMS7003;20229;49.856;19.030;2023-05-15T05:11:53;56;51;48
33948;PMS7003;20229;49.856;19.030;2023-05-15T05:17:06;57;54;52
33948;PMS7003;20229;49.856;19.030;2023-05-15T05:22:20;60;57;53
33948;PMS7003;20229;49.856;19.030;2023-05-15T05:27:34;59;58;54
33948;PMS7003;20229;49.856;19.030;2023-05-15T05:32:48;55;50;46
33948;PMS7003;20229;49.856;19.030;2023-05-15T05:38:02;58;54;50
33948;PMS7003;20229;49.856;19.030;2023-05-15T05:43:15;59;52;49
33948;PMS7003;20229;49.856;19.030;2023-05-15T05:48:29;69;65;61
33948;PMS7003;20229;49.856;19.030;2023-05-15T05:53:43;75;71;67
33948;PMS7003;20229;49.856;19.030;2023-05-15T05:58:58;75;71;68
33948;PMS7003;20229;49.856;19.030;2023-05-15T06:04:14;73;71;67
33948;PMS7003;20229;49.856;19.030;2023-05-15T06:09:28;72;68;64
33948;PMS7003;20229;49.856;19.030;2023-05-15T06:14:43;93;91;88
33948;PMS7003;20229;49.856;19.030;2023-05-15T06:19:56;87;85;81
33948;PMS7003;20229;49.856;19.030;2023-05-15T06:25:10;67;64;60
33948;PMS7003;20229;49.856;19.030;2023-05-15T06:30:26;65;63;59
33948;PMS7003;20229;49.856;19.030;2023-05-15T06:35:40;72;71;68
33948;PMS7003;20229;49.856;19.030;2023-05-15T06:40:54;74;73;69
33948;PMS7003;20229;49.856;19.030;2023-05-15T06:46:08;55;51;48
33948;PMS7003;20229;49.856;19.030;2023-05-15T06:51:22;58;55;50
33948;PMS7003;20229;49.856;19.030;2023-05-15T06:56:36;59;57;54
33948;PMS7003;20229;49.856;19.030;2023-05-15T07:01:50;63;56;53
33948;PMS7003;20229;49.856;19.030;2023-05-15T07:07:04;59;54;51
33948;PMS7003;20229;49.856;19.030;2023-05-15T07:12:19;60;55;52
33948;PMS7003;20229;49.856;19.030;2023-05-15T07:17:33;54;46;41
33948;PMS7003;20229;49.856;19.030;2023-05-15T07:22:47;50;44;38
33948;PMS7003;20229;49.856;19.030;2023-05-15T07:28:00;49;40;35
33948;PMS7003;20229;49.856;19.030;2023-05-15T07:33:15;47;41;36
33948;PMS7003;20229;49.856;19.030;2023-05-15T07:38:29;50;42;36
33948;PMS7003;20229;49.856;19.030;2023-05-15T07:43:44;52;46;41
33948;PMS7003;20229;49.856;19.030;2023-05-15T07:48:58;54;45;39
33948;PMS7003;20229;49.856;19.030;2023-05-15T07:54:12;56;51;46
33948;PMS7003;20229;49.856;19.030;2023-05-15T07:59:26;56;53;48
33948;PMS7003;20229;49.856;19.030;2023-05-15T08:04:40;53;48;43
33948;PMS7003;20229;49.856;19.030;2023-05-15T08:09:53;57;52;47
33948;PMS7003;20229;49.856;19.030;2023-05-15T08:15:07;57;51;46
33948;PMS7003;20229;49.856;19.030;2023-05-15T08:20:23;60;55;49
33948;PMS7003;20229;49.856;19.030;2023-05-15T08:25:37;58;53;48
33948;PMS7003;20229;49.856;19.030;2023-05-15T08:30:50;56;51;47
33948;PMS7003;20229;49.856;19.030;2023-05-15T08:36:06;53;47;42
33948;PMS7003;20229;49.856;19.030;2023-05-15T08:41:24;53;46;41
33948;PMS7003;20229;49.856;19.030;2023-05-15T08:46:46;53;45;40
33948;PMS7003;20229;49.856;19.030;2023-05-15T08:52:01;50;40;35
33948;PMS7003;20229;49.856;19.030;2023-05-15T08:57:16;52;43;38
33948;PMS7003;20229;49.856;19.030;2023-05-15T09:02:31;54;45;40
33948;PMS7003;20229;49.856;19.030;2023-05-15T09:07:45;54;46;41
33948;PMS7003;20229;49.856;19.030;2023-05-15T09:13:00;53;45;41
33948;PMS7003;20229;49.856;19.030;2023-05-15T09:18:16;55;47;42
33948;PMS7003;20229;49.856;19.030;2023-05-15T09:23:31;56;46;41
33948;PMS7003;20229;49.856;19.030;2023-05-15T09:28:45;52;42;37
33948;PMS7003;20229;49.856;19.030;2023-05-15T09:34:47;49;40;34
33948;PMS7003;20229;49.856;19.030;2023-05-15T09:40:13;54;45;40
33948;PMS7003;20229;49.856;19.030;2023-05-15T09:45:31;54;46;42
33948;PMS7003;20229;49.856;19.030;2023-05-15T09:50:44;59;49;45
33948;PMS7003;20229;49.856;19.030;2023-05-15T09:56:00;69;67;63
33948;PMS7003;20229;49.856;19.030;2023-05-15T10:01:16;73;70;67
33948;PMS7003;20229;49.856;19.030;2023-05-15T10:06:37;70;67;64
33948;PMS7003;20229;49.856;19.030;2023-05-15T10:11:56;76;76;73
33948;PMS7003;20229;49.856;19.030;2023-05-15T10:17:11;60;56;54
33948;PMS7003;20229;49.856;19.030;2023-05-15T10:22:29;68;66;63
33948;PMS7003;20229;49.856;19.030;2023-05-15T10:27:50;81;81;79
33948;PMS7003;20229;49.856;19.030;2023-05-15T10:33:05;86;86;81
33948;PMS7003;20229;49.856;19.030;2023-05-15T10:38:20;77;75;71
33948;PMS7003;20229;49.856;19.030;2023-05-15T10:43:36;85;84;81
33948;PMS7003;20229;49.856;19.030;2023-05-15T10:48:50;89;87;84
33948;PMS7003;20229;49.856;19.030;2023-05-15T10:54:04;92;90;87
33948;PMS7003;20229;49.856;19.030;2023-05-15T10:59:18;106;105;101
33948;PMS7003;20229;49.856;19.030;2023-05-15T11:04:32;89;88;82
33948;PMS7003;20229;49.856;19.030;2023-05-15T11:09:49;87;85;81
33948;PMS7003;20229;49.856;19.030;2023-05-15T11:20:32;86;85;84
33948;PMS7003;20229;49.856;19.030;2023-05-15T11:25:55;87;86;83
33948;PMS7003;20229;49.856;19.030;2023-05-15T11:31:10;89;88;88
33948;PMS7003;20229;49.856;19.030;2023-05-15T11:36:24;92;92;89
33948;PMS7003;20229;49.856;19.030;2023-05-15T11:41:41;93;92;89
33948;PMS7003;20229;49.856;19.030;2023-05-15T11:46:55;90;89;87
33948;PMS7003;20229;49.856;19.030;2023-05-15T11:52:10;79;77;72
33948;PMS7003;20229;49.856;19.030;2023-05-15T11:57:24;80;78;74
33948;PMS7003;20229;49.856;19.030;2023-05-15T12:02:38;71;69;67
33948;PMS7003;20229;49.856;19.030;2023-05-15T12:07:51;75;75;73
33948;PMS7003;20229;49.856;19.030;2023-05-15T12:13:07;86;86;84
33948;PMS7003;20229;49.856;19.030;2023-05-15T12:18:20;74;74;72
33948;PMS7003;20229;49.856;19.030;2023-05-15T12:23:34;80;80;79
33948;PMS7003;20229;49.856;19.030;2023-05-15T12:28:48;76;76;76
33948;PMS7003;20229;49.856;19.030;2023-05-15T12:34:05;82;82;81
33948;PMS7003;20229;49.856;19.030;2023-05-15T12:39:19;76;76;76
33948;PMS7003;20229;49.856;19.030;2023-05-15T12:44:33;81;81;80
33948;PMS7003;20229;49.856;19.030;2023-05-15T12:49:47;87;86;86
33948;PMS7003;20229;49.856;19.030;2023-05-15T12:55:00;83;83;82
33948;PMS7003;20229;49.856;19.030;2023-05-15T13:00:14;81;81;80
33948;PMS7003;20229;49.856;19.030;2023-05-15T13:05:32;87;87;86
33948;PMS7003;20229;49.856;19.030;2023-05-15T13:10:54;91;90;90
33948;PMS7003;20229;49.856;19.030;2023-05-15T13:21:35;92;92;92
33948;PMS7003;20229;49.856;19.030;2023-05-15T13:26:50;88;87;87
33948;PMS7003;20229;49.856;19.030;2023-05-15T13:32:05;84;84;83
33948;PMS7003;20229;49.856;19.030;2023-05-15T13:37:20;89;89;89
33948;PMS7003;20229;49.856;19.030;2023-05-15T13:42:34;91;91;90
33948;PMS7003;20229;49.856;19.030;2023-05-15T13:47:53;87;86;86
33948;PMS7003;20229;49.856;19.030;2023-05-15T13:53:08;88;88;88
33948;PMS7003;20229;49.856;19.030;2023-05-15T13:58:22;89;89;88
33948;PMS7003;20229;49.856;19.030;2023-05-15T14:03:38;88;88;88
33948;PMS7003;20229;49.856;19.030;2023-05-15T14:08:53;91;91;90
33948;PMS7003;20229;49.856;19.030;2023-05-15T14:14:07;106;106;105
33948;PMS7003;20229;49.856;19.030;2023-05-15T14:19:20;101;101;101
33948;PMS7003;20229;49.856;19.030;2023-05-15T14:24:34;103;103;103
33948;PMS7003;20229;49.856;19.030;2023-05-15T14:29:48;101;101;101
33948;PMS7003;20229;49.856;19.030;2023-05-15T14:35:04;107;107;107
33948;PMS7003;20229;49.856;19.030;2023-05-15T14:40:19;109;109;109
33948;PMS7003;20229;49.856;19.030;2023-05-15T14:45:33;91;91;91
33948;PMS7003;20229;49.856;19.030;2023-05-15T14:50:47;92;92;92
33948;PMS7003;20229;49.856;19.030;2023-05-15T14:56:02;110;109;109
33948;PMS7003;20229;49.856;19.030;2023-05-15T15:01:16;114;114;114
33948;PMS7003;20229;49.856;19.030;2023-05-15T15:06:29;116;116;116
33948;PMS7003;20229;49.856;19.030;2023-05-15T15:11:44;119;119;118
33948;PMS7003;20229;49.856;19.030;2023-05-15T15:16:59;96;96;95
33948;PMS7003;20229;49.856;19.030;2023-05-15T15:22:13;90;89;88
33948;PMS7003;20229;49.856;19.030;2023-05-15T15:27:26;89;89;88
33948;PMS7003;20229;49.856;19.030;2023-05-15T15:32:41;90;90;89
33948;PMS7003;20229;49.856;19.030;2023-05-15T15:37:56;102;102;102
33948;PMS7003;20229;49.856;19.030;2023-05-15T15:43:09;103;101;101
33948;PMS7003;20229;49.856;19.030;2023-05-15T15:48:23;110;110;110
33948;PMS7003;20229;49.856;19.030;2023-05-15T15:53:37;108;108;108
33948;PMS7003;20229;49.856;19.030;2023-05-15T15:58:52;110;110;110
33948;PMS7003;20229;49.856;19.030;2023-05-15T16:04:06;112;111;111
33948;PMS7003;20229;49.856;19.030;2023-05-15T16:09:20;111;111;110
33948;PMS7003;20229;49.856;19.030;2023-05-15T16:14:33;113;113;112
33948;PMS7003;20229;49.856;19.030;2023-05-15T16:19:47;118;117;117
33948;PMS7003;20229;49.856;19.030;2023-05-15T16:25:01;123;122;122
33948;PMS7003;20229;49.856;19.030;2023-05-15T16:30:15;109;109;108
33948;PMS7003;20229;49.856;19.030;2023-05-15T16:35:30;103;101;101
33948;PMS7003;20229;49.856;19.030;2023-05-15T16:40:44;98;96;96
33948;PMS7003;20229;49.856;19.030;2023-05-15T16:45:59;111;111;111
33948;PMS7003;20229;49.856;19.030;2023-05-15T16:51:13;106;105;105
33948;PMS7003;20229;49.856;19.030;2023-05-15T16:56:27;93;92;92
33948;PMS7003;20229;49.856;19.030;2023-05-15T17:01:41;103;103;102
33948;PMS7003;20229;49.856;19.030;2023-05-15T17:06:55;120;120;118
33948;PMS7003;20229;49.856;19.030;2023-05-15T17:12:08;103;102;101
33948;PMS7003;20229;49.856;19.030;2023-05-15T17:17:22;73;66;64
33948;PMS7003;20229;49.856;19.030;2023-05-15T17:22:37;77;73;71
33948;PMS7003;20229;49.856;19.030;2023-05-15T17:27:51;93;91;90
33948;PMS7003;20229;49.856;19.030;2023-05-15T17:33:05;96;94;93
33948;PMS7003;20229;49.856;19.030;2023-05-15T17:38:20;99;99;98
33948;PMS7003;20229;49.856;19.030;2023-05-15T17:43:33;94;93;91
33948;PMS7003;20229;49.856;19.030;2023-05-15T17:48:48;91;89;89
33948;PMS7003;20229;49.856;19.030;2023-05-15T17:54:02;91;88;87
33948;PMS7003;20229;49.856;19.030;2023-05-15T17:59:16;90;88;86
33948;PMS7003;20229;49.856;19.030;2023-05-15T18:04:29;85;84;82
33948;PMS7003;20229;49.856;19.030;2023-05-15T18:09:43;82;80;79
33948;PMS7003;20229;49.856;19.030;2023-05-15T18:14:57;82;80;79
33948;PMS7003;20229;49.856;19.030;2023-05-15T18:20:11;82;81;79
33948;PMS7003;20229;49.856;19.030;2023-05-15T18:25:25;76;74;72
33948;PMS7003;20229;49.856;19.030;2023-05-15T18:30:43;76;74;73
33948;PMS7003;20229;49.856;19.030;2023-05-15T18:35:57;73;71;69
33948;PMS7003;20229;49.856;19.030;2023-05-15T18:41:11;70;66;63
33948;PMS7003;20229;49.856;19.030;2023-05-15T18:46:25;77;75;70
33948;PMS7003;20229;49.856;19.030;2023-05-15T18:51:43;82;78;70
33948;PMS7003;20229;49.856;19.030;2023-05-15T18:56:56;81;78;76
33948;PMS7003;20229;49.856;19.030;2023-05-15T19:02:10;79;75;72
33948;PMS7003;20229;49.856;19.030;2023-05-15T19:07:25;84;81;80
33948;PMS7003;20229;49.856;19.030;2023-05-15T19:12:44;85;83;82
33948;PMS7003;20229;49.856;19.030;2023-05-15T19:17:58;94;93;93
33948;PMS7003;20229;49.856;19.030;2023-05-15T19:23:12;96;95;94
33948;PMS7003;20229;49.856;19.030;2023-05-15T19:28:27;95;94;92
33948;PMS7003;20229;49.856;19.030;2023-05-15T19:33:40;93;92;92
33948;PMS7003;20229;49.856;19.030;2023-05-15T19:38:54;90;89;88
33948;PMS7003;20229;49.856;19.030;2023-05-15T19:44:08;90;89;89
33948;PMS7003;20229;49.856;19.030;2023-05-15T19:49:23;89;88;87
33948;PMS7003;20229;49.856;19.030;2023-05-15T19:54:38;86;84;82
33948;PMS7003;20229;49.856;19.030;2023-05-15T19:59:53;81;79;78
33948;PMS7003;20229;49.856;19.030;2023-05-15T20:05:07;83;81;80
33948;PMS7003;20229;49.856;19.030;2023-05-15T20:10:22;83;81;80
33948;PMS7003;20229;49.856;19.030;2023-05-15T20:15:36;82;81;80
33948;PMS7003;20229;49.856;19.030;2023-05-15T20:20:52;78;76;74
33948;PMS7003;20229;49.856;19.030;2023-05-15T20:26:06;72;69;69
33948;PMS7003;20229;49.856;19.030;2023-05-15T20:31:19;85;84;83
33948;PMS7003;20229;49.856;19.030;2023-05-15T20:36:33;85;84;83
33948;PMS7003;20229;49.856;19.030;2023-05-15T20:41:50;106;105;103
33948;PMS7003;20229;49.856;19.030;2023-05-15T20:47:04;92;90;89
33948;PMS7003;20229;49.856;19.030;2023-05-15T20:52:19;95;92;91
33948;PMS7003;20229;49.856;19.030;2023-05-15T20:57:34;84;79;78
33948;PMS7003;20229;49.856;19.030;2023-05-15T21:02:48;67;62;60
33948;PMS7003;20229;49.856;19.030;2023-05-15T21:08:02;63;55;53
33948;PMS7003;20229;49.856;19.030;2023-05-15T21:13:16;62;55;53
33948;PMS7003;20229;49.856;19.030;2023-05-15T21:18:30;64;57;55
33948;PMS7003;20229;49.856;19.030;2023-05-15T21:23:44;58;50;48
33948;PMS7003;20229;49.856;19.030;2023-05-15T21:28:58;61;52;49
33948;PMS7003;20229;49.856;19.030;2023-05-15T21:34:13;56;49;46
33948;PMS7003;20229;49.856;19.030;2023-05-15T21:39:30;62;55;53
33948;PMS7003;20229;49.856;19.030;2023-05-15T21:44:44;56;49;46
33948;PMS7003;20229;49.856;19.030;2023-05-15T21:49:58;61;54;52
33948;PMS7003;20229;49.856;19.030;2023-05-15T21:55:12;64;59;57
33948;PMS7003;20229;49.856;19.030;2023-05-15T22:00:27;59;55;53
33948;PMS7003;20229;49.856;19.030;2023-05-15T22:05:41;62;57;55
33948;PMS7003;20229;49.856;19.030;2023-05-15T22:10:57;61;57;54
33948;PMS7003;20229;49.856;19.030;2023-05-15T22:16:11;62;59;57
33948;PMS7003;20229;49.856;19.030;2023-05-15T22:21:25;60;56;53
33948;PMS7003;20229;49.856;19.030;2023-05-15T22:26:38;61;57;55
33948;PMS7003;20229;49.856;19.030;2023-05-15T22:31:52;64;60;57
33948;PMS7003;20229;49.856;19.030;2023-05-15T22:37:06;65;61;60
33948;PMS7003;20229;49.856;19.030;2023-05-15T22:42:20;62;55;54
33948;PMS7003;20229;49.856;19.030;2023-05-15T22:47:36;67;63;61
33948;PMS7003;20229;49.856;19.030;2023-05-15T22:52:50;68;64;63
33948;PMS7003;20229;49.856;19.030;2023-05-15T22:58:04;59;51;48
33948;PMS7003;20229;49.856;19.030;2023-05-15T23:03:19;55;47;44
33948;PMS7003;20229;49.856;19.030;2023-05-15T23:08:33;60;52;50
33948;PMS7003;20229;49.856;19.030;2023-05-15T23:13:47;80;79;77
33948;PMS7003;20229;49.856;19.030;2023-05-15T23:19:01;80;78;76
33948;PMS7003;20229;49.856;19.030;2023-05-15T23:24:15;78;78;76
33948;PMS7003;20229;49.856;19.030;2023-05-15T23:29:29;76;75;73
33948;PMS7003;20229;49.856;19.030;2023-05-15T23:34:45;90;88;86
33948;PMS7003;20229;49.856;19.030;2023-05-15T23:40:00;116;114;109
33948;PMS7003;20229;49.856;19.030;2023-05-15T23:45:13;131;130;122
33948;PMS7003;20229;49.856;19.030;2023-05-15T23:50:28;152;150;140
33948;PMS7003;20229;49.856;19.030;2023-05-15T23:55:43;153;152;140
